createdAt,value
2018-04-16T00:01:24.182Z,19.60
2018-04-16T00:03:53.745Z,19.50
2018-04-16T00:06:23.865Z,19.40
2018-04-16T00:08:53.322Z,19.40
2018-04-16T00:11:23.053Z,19.40
2018-04-16T00:13:54.125Z,19.40
2018-04-16T00:16:23.632Z,19.30
2018-04-16T00:19:00.879Z,19.30
2018-04-16T00:21:33.959Z,19.30
2018-04-16T00:24:03.433Z,19.30
2018-04-16T00:26:34.329Z,19.30
2018-04-16T00:29:05.814Z,19.30
2018-04-16T00:31:40.547Z,19.30
2018-04-16T00:34:15.436Z,19.10
2018-04-16T00:36:50.509Z,19.20
2018-04-16T00:39:25.055Z,19.10
2018-04-16T00:42:03.571Z,19.20
2018-04-16T00:44:38.194Z,19.20
2018-04-16T00:47:12.811Z,19.20
2018-04-16T00:49:47.660Z,19.10
2018-04-16T00:55:06.018Z,19.10
2018-04-16T00:57:41.128Z,19.00
2018-04-16T01:00:16.799Z,19.00
2018-04-16T01:02:55.380Z,18.90
2018-04-16T01:05:31.099Z,18.90
2018-04-16T01:11:27.122Z,18.80
2018-04-16T01:14:01.859Z,18.70
2018-04-16T01:16:36.652Z,18.70
2018-04-16T01:19:11.334Z,18.60
2018-04-16T01:21:48.848Z,18.60
2018-04-16T01:24:23.814Z,18.60
2018-04-16T01:26:58.622Z,18.50
2018-04-16T01:29:35.047Z,18.50
2018-04-16T01:32:09.904Z,18.50
2018-04-16T01:34:45.729Z,18.50
2018-04-16T01:37:20.426Z,18.50
2018-04-16T01:39:55.268Z,18.50
2018-04-16T01:42:30.040Z,18.50
2018-04-16T01:45:04.781Z,18.30
2018-04-16T01:47:39.455Z,18.30
2018-04-16T01:50:14.164Z,18.20
2018-04-16T01:52:48.827Z,18.20
2018-04-16T01:56:01.262Z,18.10
2018-04-16T01:58:36.219Z,18.10
2018-04-16T02:01:10.991Z,18.00
2018-04-16T02:03:46.171Z,18.00
2018-04-16T02:06:21.955Z,18.00
2018-04-16T02:08:56.791Z,18.00
2018-04-16T02:11:31.959Z,18.00
2018-04-16T02:14:06.980Z,18.00
2018-04-16T02:16:43.024Z,17.90
2018-04-16T02:19:19.589Z,17.80
2018-04-16T02:21:54.430Z,17.80
2018-04-16T02:24:29.595Z,17.70
2018-04-16T02:27:04.450Z,17.70
2018-04-16T02:29:39.812Z,17.60
2018-04-16T02:32:14.511Z,17.60
2018-04-16T02:34:49.314Z,17.60
2018-04-16T02:37:24.086Z,17.70
2018-04-16T02:40:00.489Z,17.70
2018-04-16T02:42:36.533Z,17.70
2018-04-16T02:45:11.505Z,17.60
2018-04-16T02:47:49.951Z,17.60
2018-04-16T02:50:24.653Z,17.60
2018-04-16T02:52:59.734Z,17.50
2018-04-16T02:55:34.618Z,17.50
2018-04-16T03:01:40.183Z,17.50
2018-04-16T03:04:49.788Z,17.40
2018-04-16T03:07:24.629Z,17.40
2018-04-16T03:09:59.620Z,17.40
2018-04-16T03:12:45.725Z,17.30
2018-04-16T03:15:20.454Z,17.30
2018-04-16T03:21:31.156Z,17.40
2018-04-16T03:24:06.870Z,17.30
2018-04-16T03:26:43.239Z,17.30
2018-04-16T03:29:18.573Z,17.30
2018-04-16T03:35:15.181Z,17.20
2018-04-16T03:37:53.432Z,17.20
2018-04-16T03:40:32.693Z,17.10
2018-04-16T03:43:07.613Z,17.10
2018-04-16T03:45:42.666Z,17.10
2018-04-16T03:48:17.676Z,17.10
2018-04-16T03:50:52.842Z,17.20
2018-04-16T03:53:37.128Z,17.20
2018-04-16T03:56:07.115Z,17.20
2018-04-16T03:58:36.806Z,17.20
2018-04-16T04:01:06.534Z,17.20
2018-04-16T04:03:36.285Z,17.20
2018-04-16T04:06:06.743Z,17.20
2018-04-16T04:08:36.492Z,17.10
2018-04-16T04:11:06.252Z,17.10
2018-04-16T04:13:36.175Z,17.20
2018-04-16T04:16:06.410Z,17.20
2018-04-16T04:18:41.353Z,17.10
2018-04-16T04:21:11.964Z,17.10
2018-04-16T04:23:53.186Z,17.00
2018-04-16T04:26:34.025Z,17.00
2018-04-16T04:29:14.799Z,17.00
2018-04-16T04:31:44.473Z,16.90
2018-04-16T04:34:14.175Z,16.80
2018-04-16T04:36:43.895Z,16.80
2018-04-16T04:39:13.636Z,16.80
2018-04-16T04:41:43.441Z,16.70
2018-04-16T04:44:13.124Z,16.70
2018-04-16T04:46:42.774Z,16.60
2018-04-16T04:49:12.595Z,16.60
2018-04-16T04:51:42.304Z,16.60
2018-04-16T04:54:12.135Z,16.60
2018-04-16T04:56:41.888Z,16.60
2018-04-16T04:59:11.620Z,16.60
2018-04-16T05:01:41.535Z,16.70
2018-04-16T05:04:11.281Z,16.60
2018-04-16T05:06:41.092Z,16.60
2018-04-16T05:09:10.756Z,16.60
2018-04-16T05:11:46.336Z,16.50
2018-04-16T05:14:17.641Z,16.50
2018-04-16T05:16:48.194Z,16.40
2018-04-16T05:19:17.910Z,16.30
2018-04-16T05:21:48.637Z,16.30
2018-04-16T05:24:18.389Z,16.20
2018-04-16T05:26:48.043Z,16.20
2018-04-16T05:29:17.755Z,16.10
2018-04-16T05:31:47.481Z,16.10
2018-04-16T05:34:17.190Z,16.00
2018-04-16T05:36:46.976Z,16.00
2018-04-16T05:39:16.626Z,15.90
2018-04-16T05:41:46.286Z,15.90
2018-04-16T05:47:46.445Z,15.90
2018-04-16T05:50:16.001Z,15.90
2018-04-16T05:52:45.480Z,15.90
2018-04-16T05:55:15.069Z,15.80
2018-04-16T05:57:44.547Z,15.80
2018-04-16T06:00:14.071Z,15.70
2018-04-16T06:02:43.668Z,15.70
2018-04-16T06:05:13.203Z,15.70
2018-04-16T06:07:42.834Z,15.50
2018-04-16T06:10:12.333Z,15.40
2018-04-16T06:13:06.056Z,15.30
2018-04-16T06:15:35.643Z,15.30
2018-04-16T06:18:05.271Z,15.20
2018-04-16T06:20:34.936Z,15.10
2018-04-16T06:23:04.526Z,15.00
2018-04-16T06:25:34.529Z,14.90
2018-04-16T06:28:04.402Z,14.90
2018-04-16T06:30:34.423Z,14.80
2018-04-16T06:33:05.057Z,14.70
2018-04-16T06:35:34.993Z,14.60
2018-04-16T06:38:05.328Z,14.60
2018-04-16T06:40:35.701Z,14.60
2018-04-16T06:43:05.262Z,14.50
2018-04-16T06:45:35.089Z,14.60
2018-04-16T06:48:04.606Z,14.60
2018-04-16T06:50:34.258Z,14.60
2018-04-16T06:53:04.879Z,14.60
2018-04-16T06:55:34.531Z,14.50
2018-04-16T06:58:04.310Z,14.40
2018-04-16T07:00:33.898Z,14.40
2018-04-16T07:06:35.515Z,14.40
2018-04-16T07:09:05.108Z,14.30
2018-04-16T07:11:34.557Z,14.30
2018-04-16T07:14:04.689Z,14.20
2018-04-16T07:16:34.178Z,14.10
2018-04-16T07:19:03.677Z,14.00
2018-04-16T07:21:33.161Z,13.90
2018-04-16T07:24:02.420Z,13.90
2018-04-16T07:26:31.680Z,13.80
2018-04-16T07:29:01.001Z,13.70
2018-04-16T07:31:30.348Z,13.70
2018-04-16T07:33:59.669Z,13.60
2018-04-16T07:36:29.013Z,13.60
2018-04-16T07:38:58.395Z,13.60
2018-04-16T07:41:27.648Z,13.50
2018-04-16T07:43:57.025Z,13.50
2018-04-16T07:46:26.464Z,13.50
2018-04-16T07:48:56.050Z,13.40
2018-04-16T07:51:25.400Z,13.40
2018-04-16T07:53:54.796Z,13.40
2018-04-16T07:56:24.248Z,13.40
2018-04-16T07:58:53.621Z,13.40
2018-04-16T08:01:22.969Z,13.30
2018-04-16T08:03:52.324Z,13.30
2018-04-16T08:06:22.395Z,13.20
2018-04-16T08:08:51.760Z,13.20
2018-04-16T08:11:21.253Z,13.20
2018-04-16T08:13:51.483Z,13.20
2018-04-16T08:16:21.632Z,13.10
2018-04-16T08:18:51.000Z,13.10
2018-04-16T08:21:21.042Z,13.10
2018-04-16T08:23:50.407Z,13.10
2018-04-16T08:26:19.803Z,13.10
2018-04-16T08:28:49.094Z,13.10
2018-04-16T08:31:18.505Z,13.10
2018-04-16T08:33:47.858Z,13.10
2018-04-16T08:36:17.339Z,13.00
2018-04-16T08:38:47.561Z,13.00
2018-04-16T08:41:17.669Z,13.00
2018-04-16T08:43:47.001Z,13.00
2018-04-16T08:46:16.306Z,13.00
2018-04-16T08:48:45.634Z,13.00
2018-04-16T08:51:14.965Z,13.00
2018-04-16T08:53:44.352Z,13.00
2018-04-16T08:56:13.673Z,12.90
2018-04-16T08:58:43.008Z,12.90
2018-04-16T09:01:12.300Z,12.80
2018-04-16T09:03:41.655Z,12.80
2018-04-16T09:06:10.948Z,12.70
2018-04-16T09:08:40.201Z,12.70
2018-04-16T09:11:09.525Z,12.70
2018-04-16T09:13:38.976Z,12.60
2018-04-16T09:16:08.276Z,12.60
2018-04-16T09:18:37.649Z,12.60
2018-04-16T09:21:06.966Z,12.50
2018-04-16T09:23:36.218Z,12.50
2018-04-16T09:26:05.608Z,12.50
2018-04-16T09:28:35.710Z,12.50
2018-04-16T09:31:05.817Z,12.50
2018-04-16T09:36:55.842Z,12.40
2018-04-16T09:39:25.301Z,12.40
2018-04-16T09:41:55.379Z,12.40
2018-04-16T09:44:24.822Z,12.30
2018-04-16T09:46:54.255Z,12.40
2018-04-16T09:49:23.582Z,12.30
2018-04-16T09:51:53.046Z,12.30
2018-04-16T09:54:22.390Z,12.30
2018-04-16T09:56:51.804Z,12.30
2018-04-16T09:59:21.229Z,12.20
2018-04-16T10:01:51.635Z,12.20
2018-04-16T10:04:21.017Z,12.20
2018-04-16T10:06:50.441Z,12.20
2018-04-16T10:09:19.763Z,12.20
2018-04-16T10:11:49.204Z,12.20
2018-04-16T10:14:18.629Z,12.20
2018-04-16T10:16:47.954Z,12.10
2018-04-16T10:19:17.521Z,12.10
2018-04-16T10:21:46.886Z,12.10
2018-04-16T10:24:16.476Z,12.10
2018-04-16T10:26:45.882Z,12.10
2018-04-16T10:29:15.368Z,12.10
2018-04-16T10:35:15.878Z,12.10
2018-04-16T10:37:45.243Z,12.10
2018-04-16T10:40:14.688Z,12.20
2018-04-16T10:42:44.080Z,12.20
2018-04-16T10:45:13.500Z,12.30
2018-04-16T10:47:42.883Z,12.30
2018-04-16T10:50:12.522Z,12.30
2018-04-16T10:52:41.978Z,12.40
2018-04-16T10:55:11.451Z,12.40
2018-04-16T10:57:41.829Z,12.50
2018-04-16T11:00:11.252Z,12.50
2018-04-16T11:02:40.569Z,12.50
2018-04-16T11:05:10.201Z,12.60
2018-04-16T11:07:39.546Z,12.60
2018-04-16T11:10:08.919Z,12.60
2018-04-16T11:12:38.385Z,12.60
2018-04-16T11:15:07.873Z,12.60
2018-04-16T11:17:37.302Z,12.50
2018-04-16T11:20:07.782Z,12.50
2018-04-16T11:22:37.129Z,12.40
2018-04-16T11:25:06.543Z,12.40
2018-04-16T11:27:37.096Z,12.40
2018-04-16T11:30:07.821Z,12.40
2018-04-16T11:32:37.226Z,12.40
2018-04-16T11:35:06.682Z,12.30
2018-04-16T11:37:36.220Z,12.40
2018-04-16T11:40:06.664Z,12.50
2018-04-16T11:42:35.996Z,12.40
2018-04-16T11:45:05.414Z,12.50
2018-04-16T11:47:34.873Z,12.50
2018-04-16T11:50:04.226Z,12.60
2018-04-16T11:52:33.870Z,12.60
2018-04-16T11:55:04.157Z,12.60
2018-04-16T11:57:33.579Z,12.60
2018-04-16T12:00:03.067Z,12.70
2018-04-16T12:02:33.108Z,12.70
2018-04-16T12:05:02.756Z,12.80
2018-04-16T12:07:32.080Z,12.80
2018-04-16T12:10:01.564Z,12.90
2018-04-16T12:12:30.902Z,12.90
2018-04-16T12:15:00.438Z,13.00
2018-04-16T12:17:29.812Z,13.00
2018-04-16T12:20:00.397Z,13.00
2018-04-16T12:22:29.781Z,13.00
2018-04-16T12:24:59.969Z,13.00
2018-04-16T12:27:29.295Z,13.00
2018-04-16T12:29:59.515Z,13.00
2018-04-16T12:32:29.800Z,13.00
2018-04-16T12:34:59.178Z,13.00
2018-04-16T12:37:28.614Z,13.00
2018-04-16T12:39:57.944Z,13.30
2018-04-16T12:42:27.441Z,13.40
2018-04-16T12:44:56.761Z,13.30
2018-04-16T12:47:26.196Z,13.50
2018-04-16T12:49:55.576Z,13.70
2018-04-16T12:52:25.048Z,14.20
2018-04-16T12:54:54.707Z,14.60
2018-04-16T12:57:24.226Z,15.00
2018-04-16T12:59:53.566Z,15.30
2018-04-16T13:02:22.993Z,15.40
2018-04-16T13:04:52.624Z,15.60
2018-04-16T13:07:22.284Z,15.90
2018-04-16T13:09:52.297Z,16.00
2018-04-16T13:12:21.796Z,16.00
2018-04-16T13:14:51.118Z,16.20
2018-04-16T13:17:20.533Z,15.90
2018-04-16T13:19:50.676Z,15.80
2018-04-16T13:22:21.621Z,15.80
2018-04-16T13:24:51.987Z,16.10
2018-04-16T13:27:22.105Z,16.10
2018-04-16T13:29:53.165Z,16.40
2018-04-16T13:32:23.380Z,16.60
2018-04-16T13:34:52.879Z,16.60
2018-04-16T13:37:22.960Z,16.60
2018-04-16T13:39:53.666Z,16.20
2018-04-16T13:42:23.064Z,16.40
2018-04-16T13:44:52.534Z,16.80
2018-04-16T13:47:22.010Z,17.20
2018-04-16T13:49:51.483Z,17.40
2018-04-16T13:52:21.647Z,17.40
2018-04-16T13:54:54.058Z,17.40
2018-04-16T13:57:26.207Z,17.60
2018-04-16T13:59:57.311Z,17.90
2018-04-16T14:02:28.649Z,17.80
2018-04-16T14:05:00.508Z,17.90
2018-04-16T14:07:31.761Z,18.10
2018-04-16T14:10:04.317Z,18.40
2018-04-16T14:15:16.957Z,18.80
2018-04-16T14:17:49.773Z,18.80
2018-04-16T14:20:20.036Z,18.60
2018-04-16T14:22:49.439Z,18.50
2018-04-16T14:25:20.105Z,18.50
2018-04-16T14:27:49.832Z,18.70
2018-04-16T14:30:19.961Z,18.80
2018-04-16T14:32:53.169Z,18.70
2018-04-16T14:35:23.612Z,19.20
2018-04-16T14:37:54.941Z,19.60
2018-04-16T14:40:24.440Z,19.90
2018-04-16T14:42:58.333Z,19.90
2018-04-16T14:45:33.539Z,19.50
2018-04-16T14:48:03.640Z,19.90
2018-04-16T14:50:35.749Z,20.50
2018-04-16T14:53:06.884Z,20.50
2018-04-16T14:55:37.332Z,20.60
2018-04-16T14:58:08.379Z,20.50
2018-04-16T15:00:56.668Z,20.40
2018-04-16T15:03:27.291Z,20.30
2018-04-16T15:05:57.912Z,20.50
2018-04-16T15:08:30.669Z,21.10
2018-04-16T15:11:01.072Z,21.40
2018-04-16T15:13:36.961Z,21.40
2018-04-16T15:16:07.153Z,21.40
2018-04-16T15:18:41.013Z,21.50
2018-04-16T15:21:11.079Z,21.70
2018-04-16T15:23:40.516Z,21.70
2018-04-16T15:26:10.788Z,22.10
2018-04-16T15:28:40.697Z,22.00
2018-04-16T15:31:10.296Z,21.80
2018-04-16T15:37:01.582Z,22.00
2018-04-16T15:39:34.952Z,22.00
2018-04-16T15:42:04.664Z,21.70
2018-04-16T15:44:34.064Z,22.00
2018-04-16T15:47:17.734Z,22.20
2018-04-16T15:53:09.777Z,22.00
2018-04-16T15:55:39.191Z,22.10
2018-04-16T15:58:10.306Z,22.10
2018-04-16T16:00:39.689Z,22.10
2018-04-16T16:03:10.563Z,22.40
2018-04-16T16:05:39.986Z,22.70
2018-04-16T16:08:10.410Z,23.00
2018-04-16T16:10:41.950Z,23.10
2018-04-16T16:13:15.151Z,22.90
2018-04-16T16:15:45.576Z,23.20
2018-04-16T16:18:16.154Z,23.00
2018-04-16T16:20:45.671Z,22.60
2018-04-16T16:26:38.065Z,23.30
2018-04-16T16:29:07.819Z,23.40
2018-04-16T16:31:38.289Z,23.30
2018-04-16T16:34:07.801Z,23.30
2018-04-16T16:36:43.831Z,23.10
2018-04-16T16:39:13.380Z,23.20
2018-04-16T16:41:49.628Z,23.10
2018-04-16T16:44:21.902Z,23.00
2018-04-16T16:46:52.840Z,23.00
2018-04-16T16:52:36.757Z,23.40
2018-04-16T16:55:21.673Z,23.00
2018-04-16T16:57:56.566Z,23.20
2018-04-16T17:00:28.888Z,23.60
2018-04-16T17:03:02.158Z,23.30
2018-04-16T17:05:35.866Z,23.10
2018-04-16T17:08:09.219Z,23.10
2018-04-16T17:13:56.568Z,23.60
2018-04-16T17:16:26.372Z,23.60
2018-04-16T17:18:58.127Z,24.10
2018-04-16T17:21:28.503Z,24.10
2018-04-16T17:23:58.773Z,24.20
2018-04-16T17:26:28.338Z,24.10
2018-04-16T17:28:57.883Z,24.30
2018-04-16T17:31:27.560Z,24.40
2018-04-16T17:33:57.107Z,24.80
2018-04-16T17:36:27.037Z,25.30
2018-04-16T17:38:56.620Z,25.00
2018-04-16T17:41:27.647Z,25.00
2018-04-16T17:43:57.175Z,24.20
2018-04-16T17:46:26.717Z,24.00
2018-04-16T17:48:56.841Z,23.30
2018-04-16T17:51:26.281Z,23.20
2018-04-16T17:53:55.928Z,23.30
2018-04-16T17:56:25.402Z,23.90
2018-04-16T17:58:55.337Z,24.30
2018-04-16T18:01:25.833Z,24.90
2018-04-16T18:03:55.304Z,25.20
2018-04-16T18:06:24.850Z,25.20
2018-04-16T18:08:54.536Z,25.10
2018-04-16T18:11:24.040Z,25.50
2018-04-16T18:13:53.585Z,25.80
2018-04-16T18:16:23.245Z,25.70
2018-04-16T18:18:52.701Z,25.30
2018-04-16T18:21:23.350Z,24.80
2018-04-16T18:23:53.769Z,24.30
2018-04-16T18:26:23.226Z,24.00
2018-04-16T18:29:28.648Z,23.80
2018-04-16T18:31:58.226Z,23.80
2018-04-16T18:34:27.822Z,24.10
2018-04-16T18:36:57.186Z,24.10
2018-04-16T18:39:26.866Z,23.80
2018-04-16T18:41:56.461Z,23.40
2018-04-16T18:44:26.701Z,23.70
2018-04-16T18:46:56.258Z,23.70
2018-04-16T18:49:25.708Z,24.00
2018-04-16T18:51:55.489Z,23.90
2018-04-16T18:54:26.862Z,23.80
2018-04-16T18:59:33.274Z,24.20
2018-04-16T19:02:13.595Z,24.90
2018-04-16T19:04:47.118Z,24.70
2018-04-16T19:07:24.728Z,24.60
2018-04-16T19:09:54.275Z,24.70
2018-04-16T19:12:24.532Z,24.80
2018-04-16T19:14:54.766Z,24.60
2018-04-16T19:17:24.991Z,25.00
2018-04-16T19:19:54.404Z,25.00
2018-04-16T19:22:24.817Z,25.60
2018-04-16T19:24:56.029Z,25.40
2018-04-16T19:27:31.963Z,25.30
2018-04-16T19:30:02.106Z,25.20
2018-04-16T19:32:37.013Z,25.00
2018-04-16T19:35:08.578Z,25.00
2018-04-16T19:37:37.947Z,24.60
2018-04-16T19:40:07.347Z,24.60
2018-04-16T19:45:59.373Z,24.10
2018-04-16T19:48:34.887Z,24.10
2018-04-16T19:51:05.937Z,24.00
2018-04-16T19:53:36.132Z,24.10
2018-04-16T19:56:11.059Z,24.10
2018-04-16T19:58:41.017Z,24.60
2018-04-16T20:01:10.833Z,25.20
2018-04-16T20:03:46.668Z,26.10
2018-04-16T20:06:20.452Z,25.70
2018-04-16T20:08:50.644Z,25.60
2018-04-16T20:11:20.329Z,25.40
2018-04-16T20:13:53.404Z,25.30
2018-04-16T20:16:26.775Z,25.50
2018-04-16T20:19:00.625Z,25.70
2018-04-16T20:21:36.208Z,26.20
2018-04-16T20:24:11.508Z,26.40
2018-04-16T20:26:54.137Z,26.20
2018-04-16T20:29:23.960Z,26.20
2018-04-16T20:31:53.590Z,26.40
2018-04-16T20:34:23.144Z,26.30
2018-04-16T20:36:55.113Z,26.40
2018-04-16T20:39:26.972Z,26.20
2018-04-16T20:41:56.741Z,25.80
2018-04-16T20:44:27.386Z,25.40
2018-04-16T20:46:57.284Z,25.20
2018-04-16T20:49:27.484Z,25.40
2018-04-16T20:51:58.061Z,25.50
2018-04-16T20:54:27.669Z,25.60
2018-04-16T20:56:57.849Z,25.70
2018-04-16T20:59:27.564Z,25.60
2018-04-16T21:01:57.297Z,25.70
2018-04-16T21:04:27.817Z,25.90
2018-04-16T21:07:00.459Z,26.10
2018-04-16T21:09:32.878Z,26.30
2018-04-16T21:12:05.225Z,26.10
2018-04-16T21:14:37.509Z,25.70
2018-04-16T21:17:08.925Z,25.70
2018-04-16T21:19:42.029Z,25.90
2018-04-16T21:22:17.308Z,25.80
2018-04-16T21:27:27.981Z,25.60
2018-04-16T21:30:01.920Z,25.80
2018-04-16T21:32:37.853Z,25.80
2018-04-16T21:35:12.885Z,25.60
2018-04-16T21:37:43.832Z,25.70
2018-04-16T21:40:16.957Z,25.60
2018-04-16T21:42:51.918Z,25.60
2018-04-16T21:45:25.307Z,25.60
2018-04-16T21:48:00.716Z,25.10
2018-04-16T21:51:11.450Z,25.00
2018-04-16T21:53:41.901Z,25.10
2018-04-16T21:56:13.797Z,25.00
2018-04-16T21:58:43.433Z,25.10
2018-04-16T22:01:12.941Z,25.10
2018-04-16T22:03:42.533Z,25.10
2018-04-16T22:06:12.001Z,25.30
2018-04-16T22:08:41.949Z,25.50
2018-04-16T22:11:13.324Z,25.60
2018-04-16T22:13:42.933Z,25.60
2018-04-16T22:16:14.261Z,25.20
2018-04-16T22:18:43.847Z,25.10
2018-04-16T22:21:13.386Z,24.40
2018-04-16T22:23:43.046Z,24.20
2018-04-16T22:26:12.925Z,24.30
2018-04-16T22:28:43.454Z,24.30
2018-04-16T22:31:13.866Z,24.40
2018-04-16T22:33:43.677Z,24.30
2018-04-16T22:36:13.359Z,24.10
2018-04-16T22:38:43.407Z,23.80
2018-04-16T22:41:14.460Z,23.50
2018-04-16T22:43:44.069Z,23.20
2018-04-16T22:46:13.643Z,23.10
2018-04-16T22:48:44.196Z,22.90
2018-04-16T22:51:13.912Z,22.70
2018-04-16T22:53:45.326Z,22.50
2018-04-16T22:56:14.865Z,22.30
2018-04-16T22:58:44.363Z,22.20
2018-04-16T23:01:15.331Z,21.90
2018-04-16T23:03:47.273Z,21.90
2018-04-16T23:06:21.504Z,22.20
2018-04-16T23:08:51.654Z,22.10
2018-04-16T23:11:21.177Z,22.40
2018-04-16T23:13:50.718Z,22.40
2018-04-16T23:16:20.206Z,22.40
2018-04-16T23:18:49.982Z,22.10
2018-04-16T23:21:19.560Z,21.90
2018-04-16T23:23:51.784Z,21.70
2018-04-16T23:26:22.128Z,21.60
2018-04-16T23:32:13.413Z,21.30
2018-04-16T23:34:43.396Z,21.30
2018-04-16T23:37:12.693Z,21.30
2018-04-16T23:39:42.024Z,21.10
2018-04-16T23:42:11.277Z,21.10
2018-04-16T23:44:40.624Z,21.00
2018-04-16T23:47:09.881Z,20.80
2018-04-16T23:49:39.321Z,20.50
2018-04-16T23:52:08.822Z,20.40
2018-04-16T23:54:38.834Z,20.20
2018-04-16T23:57:08.096Z,20.00
2018-04-16T23:59:40.670Z,19.90
